createdAt,value
2019-05-17T00:00:57.340Z,33.10
2019-05-17T00:03:51.915Z,33.60
2019-05-17T00:06:47.644Z,33.80
2019-05-17T00:09:42.182Z,34.10
2019-05-17T00:12:37.026Z,34.30
2019-05-17T00:15:31.626Z,34.70
2019-05-17T00:18:26.490Z,35.00
2019-05-17T00:21:20.744Z,35.10
2019-05-17T00:24:18.091Z,35.30
2019-05-17T00:27:12.607Z,35.50
2019-05-17T00:30:07.971Z,35.90
2019-05-17T00:33:03.307Z,36.10
2019-05-17T00:35:57.774Z,36.10
2019-05-17T00:38:53.463Z,36.30
2019-05-17T00:41:47.983Z,36.50
2019-05-17T00:44:47.174Z,36.50
2019-05-17T00:47:42.818Z,36.70
2019-05-17T00:50:38.160Z,37.00
2019-05-17T00:53:33.736Z,37.20
2019-05-17T00:56:28.215Z,37.30
2019-05-17T00:59:22.342Z,37.60
2019-05-17T01:02:17.199Z,37.70
2019-05-17T01:05:11.937Z,37.70
2019-05-17T01:08:07.333Z,38.00
2019-05-17T01:11:06.933Z,38.20
2019-05-17T01:14:02.980Z,38.00
2019-05-17T01:16:57.207Z,38.90
2019-05-17T01:19:51.806Z,39.40
2019-05-17T01:22:47.504Z,39.80
2019-05-17T01:25:41.855Z,40.30
2019-05-17T01:28:37.167Z,40.90
2019-05-17T01:31:32.942Z,41.60
2019-05-17T01:34:27.715Z,41.70
2019-05-17T01:37:22.388Z,42.30
2019-05-17T01:40:17.838Z,42.50
2019-05-17T01:43:13.131Z,43.50
2019-05-17T01:46:07.480Z,43.70
2019-05-17T01:49:02.356Z,43.60
2019-05-17T01:51:58.383Z,43.70
2019-05-17T01:54:57.011Z,43.90
2019-05-17T01:57:51.674Z,43.90
2019-05-17T02:00:46.612Z,43.80
2019-05-17T02:03:41.592Z,43.70
2019-05-17T02:06:36.573Z,44.00
2019-05-17T02:09:37.698Z,44.00
2019-05-17T02:12:29.364Z,44.00
2019-05-17T02:15:26.701Z,44.00
2019-05-17T02:18:20.729Z,43.70
2019-05-17T02:21:16.851Z,44.20
2019-05-17T02:24:16.955Z,43.30
2019-05-17T02:27:12.338Z,43.20
2019-05-17T02:30:07.264Z,43.30
2019-05-17T02:33:04.044Z,43.50
2019-05-17T02:36:02.840Z,43.40
2019-05-17T02:39:03.589Z,43.70
2019-05-17T02:42:02.547Z,43.90
2019-05-17T02:44:57.229Z,43.20
2019-05-17T02:47:53.703Z,43.50
2019-05-17T02:50:48.951Z,43.50
2019-05-17T02:53:43.807Z,43.30
2019-05-17T02:56:39.592Z,43.70
2019-05-17T02:59:33.809Z,43.20
2019-05-17T03:02:33.845Z,43.30
2019-05-17T03:05:25.501Z,43.60
2019-05-17T03:08:23.483Z,43.00
2019-05-17T03:11:22.689Z,43.30
2019-05-17T03:14:19.567Z,43.20
2019-05-17T03:17:14.502Z,43.10
2019-05-17T03:20:14.173Z,43.00
2019-05-17T03:23:12.660Z,43.20
2019-05-17T03:26:07.972Z,43.00
2019-05-17T03:29:06.709Z,43.30
2019-05-17T03:32:08.601Z,42.90
2019-05-17T03:35:06.770Z,43.30
2019-05-17T03:37:58.461Z,42.90
2019-05-17T03:41:53.559Z,43.40
2019-05-17T03:44:48.253Z,43.20
2019-05-17T03:47:44.612Z,42.80
2019-05-17T03:50:38.160Z,42.90
2019-05-17T03:53:33.639Z,43.20
2019-05-17T03:56:28.525Z,43.10
2019-05-17T03:59:24.406Z,43.20
2019-05-17T04:02:22.820Z,43.70
2019-05-17T04:05:15.890Z,43.30
2019-05-17T04:08:13.633Z,43.60
2019-05-17T04:11:22.151Z,43.40
2019-05-17T04:14:06.047Z,43.50
2019-05-17T04:17:03.031Z,43.50
2019-05-17T04:19:57.083Z,43.40
2019-05-17T04:22:52.841Z,43.00
2019-05-17T04:25:47.639Z,43.40
2019-05-17T04:28:44.044Z,43.10
2019-05-17T04:31:43.496Z,42.90
2019-05-17T04:34:43.412Z,42.90
2019-05-17T04:37:38.610Z,42.80
2019-05-17T04:40:34.463Z,42.70
2019-05-17T04:43:33.408Z,42.40
2019-05-17T04:46:32.416Z,42.20
2019-05-17T04:49:27.853Z,42.10
2019-05-17T04:52:25.209Z,41.80
2019-05-17T04:55:23.056Z,41.60
2019-05-17T04:58:18.454Z,41.50
2019-05-17T05:01:13.790Z,41.40
2019-05-17T05:04:15.122Z,39.20
2019-05-17T05:07:22.490Z,38.50
2019-05-17T05:10:29.022Z,37.90
2019-05-17T05:13:33.395Z,37.40
2019-05-17T05:16:36.509Z,37.00
2019-05-17T05:23:35.498Z,37.30
2019-05-17T05:26:42.474Z,37.10
2019-05-17T05:30:02.991Z,37.20
2019-05-17T05:33:01.880Z,37.10
2019-05-17T05:36:14.492Z,37.10
2019-05-17T05:41:36.711Z,37.20
2019-05-17T05:42:55.618Z,37.50
2019-05-17T05:46:45.393Z,37.80
2019-05-17T05:50:01.968Z,37.70
2019-05-17T05:53:04.980Z,37.70
2019-05-17T05:56:07.023Z,37.50
2019-05-17T05:59:08.018Z,37.40
2019-05-17T06:02:47.359Z,37.40
2019-05-17T06:05:46.910Z,37.40
2019-05-17T06:08:46.776Z,37.60
2019-05-17T06:11:59.173Z,37.80
2019-05-17T06:14:58.583Z,37.40
2019-05-17T06:17:57.050Z,36.90
2019-05-17T06:20:55.359Z,36.80
2019-05-17T06:24:47.468Z,36.80
2019-05-17T06:27:32.004Z,37.10
2019-05-17T06:30:32.222Z,37.00
2019-05-17T06:33:31.070Z,36.80
2019-05-17T06:36:25.287Z,36.60
2019-05-17T06:40:02.407Z,36.50
2019-05-17T06:43:04.183Z,36.40
2019-05-17T06:46:08.923Z,36.70
2019-05-17T06:49:11.734Z,36.50
2019-05-17T06:52:07.645Z,36.60
2019-05-17T06:55:05.733Z,36.50
2019-05-17T06:58:03.785Z,36.30
2019-05-17T07:01:06.820Z,36.60
2019-05-17T07:04:02.385Z,36.30
2019-05-17T07:07:17.901Z,36.20
2019-05-17T07:10:25.732Z,37.50
2019-05-17T07:21:29.705Z,37.80
2019-05-17T07:24:40.835Z,38.00
2019-05-17T07:31:40.469Z,38.40
2019-05-17T07:35:05.279Z,38.50
2019-05-17T07:38:23.059Z,38.40
2019-05-17T07:41:22.604Z,38.50
2019-05-17T07:44:40.212Z,38.40
2019-05-17T07:47:33.698Z,38.30
2019-05-17T07:50:45.735Z,38.40
2019-05-17T07:54:15.330Z,38.40
2019-05-17T07:57:25.824Z,39.60
2019-05-17T08:00:31.914Z,40.80
2019-05-17T08:03:32.836Z,40.60
2019-05-17T08:06:30.578Z,40.20
2019-05-17T08:09:30.043Z,39.70
2019-05-17T08:12:30.421Z,39.30
2019-05-17T08:15:27.686Z,39.10
2019-05-17T08:18:23.041Z,39.10
2019-05-17T08:21:19.906Z,39.00
2019-05-17T08:24:16.105Z,38.80
2019-05-17T08:27:16.395Z,38.70
2019-05-17T08:30:13.616Z,38.60
2019-05-17T08:33:24.001Z,38.90
2019-05-17T08:36:21.280Z,38.40
2019-05-17T08:39:20.757Z,38.40
2019-05-17T08:42:20.327Z,38.30
2019-05-17T08:45:15.493Z,38.20
2019-05-17T08:48:11.733Z,38.30
2019-05-17T08:51:11.282Z,38.20
2019-05-17T08:54:11.038Z,38.30
2019-05-17T08:57:09.879Z,38.00
2019-05-17T09:00:12.759Z,37.70
2019-05-17T09:03:20.680Z,37.60
2019-05-17T09:07:29.494Z,37.60
2019-05-17T09:11:02.539Z,37.50
2019-05-17T09:13:57.503Z,37.50
2019-05-17T09:16:50.544Z,37.50
2019-05-17T09:19:50.937Z,37.70
2019-05-17T09:22:47.794Z,37.30
2019-05-17T09:25:51.062Z,37.20
2019-05-17T09:37:53.859Z,37.20
2019-05-17T09:41:29.350Z,37.30
2019-05-17T09:45:12.964Z,37.10
2019-05-17T09:48:10.242Z,37.10
2019-05-17T09:51:23.622Z,37.00
2019-05-17T09:54:41.684Z,37.00
2019-05-17T09:57:29.805Z,36.80
2019-05-17T10:00:26.146Z,36.70
2019-05-17T10:03:24.089Z,36.60
2019-05-17T10:06:28.740Z,36.70
2019-05-17T10:09:23.626Z,36.20
2019-05-17T10:12:20.740Z,36.10
2019-05-17T10:15:17.676Z,35.60
2019-05-17T10:18:16.473Z,35.60
2019-05-17T10:21:19.896Z,35.80
2019-05-17T10:24:19.910Z,35.90
2019-05-17T10:27:19.634Z,35.90
2019-05-17T10:30:46.108Z,36.00
2019-05-17T10:33:45.403Z,36.00
2019-05-17T10:36:40.775Z,36.20
2019-05-17T10:39:38.435Z,36.10
2019-05-17T10:42:32.156Z,36.10
2019-05-17T10:45:27.527Z,36.10
2019-05-17T10:48:24.492Z,36.20
2019-05-17T10:51:22.091Z,36.20
2019-05-17T10:54:33.959Z,36.20
2019-05-17T10:57:40.191Z,36.30
2019-05-17T11:00:40.949Z,36.30
2019-05-17T11:03:35.541Z,36.30
2019-05-17T11:06:41.206Z,36.40
2019-05-17T11:09:40.233Z,36.30
2019-05-17T11:12:35.395Z,36.40
2019-05-17T11:16:03.097Z,36.50
2019-05-17T11:19:08.523Z,36.50
2019-05-17T11:22:04.370Z,36.60
2019-05-17T11:25:03.134Z,36.60
2019-05-17T11:28:04.236Z,36.60
2019-05-17T11:31:02.211Z,36.60
2019-05-17T11:34:00.867Z,36.50
2019-05-17T11:37:10.625Z,36.50
2019-05-17T11:40:08.148Z,36.60
2019-05-17T11:43:06.082Z,36.70
2019-05-17T11:46:05.632Z,36.70
2019-05-17T11:49:03.740Z,36.70
2019-05-17T11:51:59.455Z,36.60
2019-05-17T11:54:59.158Z,36.60
2019-05-17T11:57:55.573Z,36.50
2019-05-17T12:00:51.318Z,36.50
2019-05-17T12:03:51.420Z,37.00
2019-05-17T12:06:46.823Z,37.70
2019-05-17T12:09:43.939Z,37.00
2019-05-17T12:12:39.234Z,36.70
2019-05-17T12:15:45.162Z,36.50
2019-05-17T12:18:35.831Z,36.20
2019-05-17T12:21:32.119Z,36.00
2019-05-17T12:24:28.191Z,35.90
2019-05-17T12:27:23.400Z,35.70
2019-05-17T12:30:19.071Z,35.60
2019-05-17T12:33:13.809Z,35.30
2019-05-17T12:36:09.182Z,34.70
2019-05-17T12:39:03.186Z,34.10
2019-05-17T12:42:01.873Z,33.80
2019-05-17T12:44:56.619Z,33.60
2019-05-17T12:47:51.401Z,34.00
2019-05-17T12:50:45.547Z,33.60
2019-05-17T12:53:40.447Z,33.60
2019-05-17T12:56:35.526Z,33.70
2019-05-17T12:59:30.830Z,33.80
2019-05-17T13:02:25.901Z,33.70
2019-05-17T13:05:22.130Z,33.80
2019-05-17T13:08:18.838Z,33.80
2019-05-17T13:11:14.761Z,33.80
2019-05-17T13:14:09.496Z,34.00
2019-05-17T13:17:05.343Z,34.00
2019-05-17T13:20:06.282Z,34.00
2019-05-17T13:23:03.456Z,34.00
2019-05-17T13:25:59.616Z,34.00
2019-05-17T13:28:55.658Z,34.20
2019-05-17T13:31:53.108Z,34.20
2019-05-17T13:34:48.733Z,34.30
2019-05-17T13:37:44.554Z,34.40
2019-05-17T13:40:41.943Z,34.50
2019-05-17T13:43:36.972Z,34.60
2019-05-17T13:46:35.950Z,34.60
2019-05-17T13:49:32.927Z,34.60
2019-05-17T13:52:29.908Z,34.70
2019-05-17T13:55:27.158Z,34.90
2019-05-17T13:58:25.072Z,34.90
2019-05-17T14:01:22.272Z,35.00
2019-05-17T14:04:19.976Z,35.00
2019-05-17T14:07:18.735Z,35.00
2019-05-17T14:10:26.853Z,35.10
2019-05-17T14:13:15.242Z,35.20
2019-05-17T14:16:12.918Z,35.20
2019-05-17T14:19:11.823Z,35.20
2019-05-17T14:22:12.076Z,35.30
2019-05-17T14:25:10.623Z,35.40
2019-05-17T14:28:11.245Z,35.40
2019-05-17T14:31:04.067Z,35.50
2019-05-17T14:33:59.740Z,35.50
2019-05-17T14:36:54.647Z,35.60
2019-05-17T14:39:50.157Z,35.60
2019-05-17T14:42:47.900Z,35.60
2019-05-17T14:45:42.929Z,35.60
2019-05-17T14:48:38.316Z,35.70
2019-05-17T14:51:33.578Z,35.80
2019-05-17T14:54:28.842Z,35.90
2019-05-17T14:57:23.685Z,35.90
2019-05-17T15:00:18.607Z,36.00
2019-05-17T15:03:13.471Z,35.90
2019-05-17T15:06:09.189Z,36.00
2019-05-17T15:09:11.208Z,36.00
2019-05-17T15:12:04.932Z,36.10
2019-05-17T15:15:01.785Z,36.10
2019-05-17T15:17:59.325Z,36.20
2019-05-17T15:20:55.671Z,36.20
2019-05-17T15:23:51.618Z,36.20
2019-05-17T15:27:04.084Z,36.30
2019-05-17T15:29:45.761Z,36.30
2019-05-17T15:32:41.407Z,36.30
2019-05-17T15:35:35.729Z,36.30
2019-05-17T15:38:29.991Z,36.30
2019-05-17T15:41:26.611Z,36.30
2019-05-17T15:44:22.881Z,36.40
2019-05-17T15:47:20.300Z,36.40
2019-05-17T15:50:17.631Z,36.40
2019-05-17T15:53:13.038Z,36.40
2019-05-17T15:56:09.847Z,36.50
2019-05-17T15:59:05.404Z,36.50
2019-05-17T16:02:01.317Z,36.50
2019-05-17T16:04:57.260Z,36.50
2019-05-17T16:07:54.948Z,36.50
2019-05-17T16:10:54.231Z,36.50
2019-05-17T16:13:51.356Z,36.50
2019-05-17T16:16:47.583Z,36.60
2019-05-17T16:19:44.157Z,36.60
2019-05-17T16:22:38.982Z,36.60
2019-05-17T16:25:34.202Z,36.60
2019-05-17T16:28:28.367Z,36.70
2019-05-17T16:31:25.765Z,36.70
2019-05-17T16:34:20.008Z,36.70
2019-05-17T16:37:14.160Z,36.70
2019-05-17T16:40:09.390Z,36.70
2019-05-17T16:43:17.035Z,36.80
2019-05-17T16:46:02.055Z,36.90
2019-05-17T16:48:59.766Z,36.80
2019-05-17T16:51:57.901Z,36.80
2019-05-17T16:54:55.896Z,36.80
2019-05-17T16:57:50.791Z,36.80
2019-05-17T17:00:46.819Z,36.90
2019-05-17T17:03:44.492Z,36.90
2019-05-17T17:06:39.900Z,36.90
2019-05-17T17:09:37.369Z,37.00
2019-05-17T17:12:33.463Z,37.00
2019-05-17T17:15:28.737Z,37.00
2019-05-17T17:18:23.897Z,37.10
2019-05-17T17:21:18.462Z,37.00
2019-05-17T17:24:15.477Z,37.10
2019-05-17T17:27:13.750Z,37.10
2019-05-17T17:30:12.187Z,37.20
2019-05-17T17:33:10.413Z,37.30
2019-05-17T17:36:07.643Z,37.20
2019-05-17T17:39:08.059Z,37.30
2019-05-17T17:42:03.476Z,37.20
2019-05-17T17:45:00.458Z,37.30
2019-05-17T17:47:57.993Z,37.30
2019-05-17T17:50:55.906Z,37.30
2019-05-17T17:53:54.343Z,37.40
2019-05-17T17:56:50.332Z,37.40
2019-05-17T17:59:47.564Z,37.40
2019-05-17T18:02:43.787Z,37.50
2019-05-17T18:05:38.657Z,37.50
2019-05-17T18:08:34.809Z,37.60
2019-05-17T18:11:31.529Z,37.50
2019-05-17T18:14:32.327Z,37.50
2019-05-17T18:17:29.345Z,37.60
2019-05-17T18:20:25.561Z,37.60
2019-05-17T18:23:23.459Z,37.50
2019-05-17T18:26:30.877Z,37.60
2019-05-17T18:29:25.810Z,37.60
2019-05-17T18:32:21.540Z,37.60
2019-05-17T18:35:19.117Z,37.60
2019-05-17T18:38:15.224Z,37.60
2019-05-17T18:41:10.267Z,37.70
2019-05-17T18:44:05.359Z,37.60
2019-05-17T18:47:00.558Z,37.60
2019-05-17T18:49:55.221Z,37.50
2019-05-17T18:52:50.914Z,37.50
2019-05-17T18:55:46.123Z,37.50
2019-05-17T18:58:41.005Z,37.50
2019-05-17T19:01:36.169Z,37.50
2019-05-17T19:04:31.002Z,37.50
2019-05-17T19:07:25.691Z,37.50
2019-05-17T19:10:23.440Z,37.50
2019-05-17T19:13:18.177Z,37.50
2019-05-17T19:16:12.701Z,37.50
2019-05-17T19:19:09.170Z,37.60
2019-05-17T19:22:03.867Z,37.50
2019-05-17T19:24:58.639Z,37.50
2019-05-17T19:27:54.404Z,37.60
2019-05-17T19:30:51.472Z,37.60
2019-05-17T19:33:46.741Z,37.60
2019-05-17T19:36:41.766Z,37.60
2019-05-17T19:39:36.620Z,37.60
2019-05-17T19:42:32.187Z,37.70
2019-05-17T19:45:27.515Z,37.70
2019-05-17T19:48:22.933Z,37.60
2019-05-17T19:51:17.877Z,37.60
2019-05-17T19:54:12.718Z,37.70
2019-05-17T19:57:08.414Z,37.70
2019-05-17T20:00:04.515Z,37.90
2019-05-17T20:03:00.011Z,37.70
2019-05-17T20:05:55.475Z,37.90
2019-05-17T20:08:51.876Z,37.70
2019-05-17T20:11:48.076Z,37.80
2019-05-17T20:14:44.334Z,37.80
2019-05-17T20:17:40.618Z,37.80
2019-05-17T20:20:40.461Z,37.90
2019-05-17T20:23:37.167Z,37.90
2019-05-17T20:26:34.237Z,37.90
2019-05-17T20:29:30.816Z,38.40
2019-05-17T20:32:26.317Z,37.80
2019-05-17T20:35:22.741Z,37.90
2019-05-17T20:38:19.107Z,37.90
2019-05-17T20:41:15.047Z,38.00
2019-05-17T20:44:11.194Z,38.00
2019-05-17T20:47:05.462Z,38.00
2019-05-17T20:50:00.575Z,37.50
2019-05-17T20:52:54.997Z,38.00
2019-05-17T20:55:49.480Z,38.10
2019-05-17T20:58:44.267Z,38.10
2019-05-17T21:01:38.950Z,38.10
2019-05-17T21:04:33.331Z,38.10
2019-05-17T21:07:29.180Z,38.20
2019-05-17T21:10:25.061Z,38.30
2019-05-17T21:13:19.632Z,38.40
2019-05-17T21:16:14.516Z,38.30
2019-05-17T21:19:09.214Z,38.40
2019-05-17T21:22:04.008Z,38.30
2019-05-17T21:24:58.785Z,38.40
2019-05-17T21:27:53.289Z,38.40
2019-05-17T21:30:49.018Z,38.40
2019-05-17T21:33:44.195Z,38.40
2019-05-17T21:36:41.755Z,38.40
2019-05-17T21:39:41.561Z,38.40
2019-05-17T21:42:38.026Z,38.30
2019-05-17T21:45:36.154Z,38.40
2019-05-17T21:48:34.282Z,38.40
2019-05-17T21:51:31.194Z,38.40
2019-05-17T21:54:27.934Z,38.40
2019-05-17T21:57:24.632Z,38.40
2019-05-17T22:00:30.375Z,38.40
2019-05-17T22:03:29.014Z,38.40
2019-05-17T22:06:26.524Z,38.40
2019-05-17T22:09:24.723Z,38.40
2019-05-17T22:12:22.141Z,38.40
2019-05-17T22:15:20.001Z,38.40
2019-05-17T22:18:18.629Z,38.40
2019-05-17T22:21:13.693Z,38.50
2019-05-17T22:24:08.603Z,38.50
2019-05-17T22:27:05.498Z,38.50
2019-05-17T22:30:01.288Z,38.60
2019-05-17T22:32:56.351Z,38.50
2019-05-17T22:35:52.870Z,38.60
2019-05-17T22:38:47.398Z,38.60
2019-05-17T22:41:41.601Z,38.60
2019-05-17T22:44:36.823Z,38.60
2019-05-17T22:47:31.227Z,38.60
2019-05-17T22:50:25.086Z,38.60
2019-05-17T22:53:19.601Z,38.60
2019-05-17T22:56:13.956Z,38.60
2019-05-17T22:59:08.361Z,38.80
2019-05-17T23:02:02.923Z,38.60
2019-05-17T23:04:57.358Z,38.60
2019-05-17T23:07:51.526Z,38.70
2019-05-17T23:10:45.987Z,38.60
2019-05-17T23:13:41.869Z,38.60
2019-05-17T23:16:50.536Z,38.60
2019-05-17T23:19:32.466Z,38.70
2019-05-17T23:22:26.706Z,38.70
2019-05-17T23:25:22.078Z,38.70
2019-05-17T23:28:16.315Z,38.70
2019-05-17T23:31:11.063Z,38.70
2019-05-17T23:34:05.783Z,38.60
2019-05-17T23:37:00.356Z,38.60
2019-05-17T23:39:55.044Z,38.60
2019-05-17T23:42:49.393Z,38.70
2019-05-17T23:45:44.907Z,38.70
2019-05-17T23:48:39.406Z,38.10
2019-05-17T23:51:33.696Z,38.60
2019-05-17T23:54:27.944Z,38.60
2019-05-17T23:57:22.262Z,38.70
